createdAt,value
2018-11-02T00:01:05.559Z,8.19
2018-11-02T00:03:33.906Z,8.20
2018-11-02T00:06:02.277Z,8.27
2018-11-02T00:08:31.004Z,8.22
2018-11-02T00:10:59.648Z,8.23
2018-11-02T00:13:28.043Z,8.27
2018-11-02T00:15:56.384Z,8.36
2018-11-02T00:18:24.922Z,8.16
2018-11-02T00:20:53.259Z,8.30
2018-11-02T00:23:21.596Z,8.21
2018-11-02T00:25:50.320Z,8.33
2018-11-02T00:28:18.651Z,8.25
2018-11-02T00:30:46.982Z,8.29
2018-11-02T00:33:15.347Z,8.26
2018-11-02T00:35:43.737Z,8.20
2018-11-02T00:38:12.075Z,8.16
2018-11-02T00:40:40.388Z,8.26
2018-11-02T00:43:08.712Z,8.25
2018-11-02T00:45:37.051Z,8.20
2018-11-02T00:48:05.496Z,8.24
2018-11-02T00:50:33.842Z,8.30
2018-11-02T00:53:02.540Z,8.37
2018-11-02T00:55:30.840Z,8.43
2018-11-02T00:57:59.188Z,8.28
2018-11-02T01:00:27.531Z,8.28
2018-11-02T01:02:55.876Z,8.27
2018-11-02T01:05:24.228Z,8.31
2018-11-02T01:07:52.600Z,8.37
2018-11-02T01:10:20.944Z,8.27
2018-11-02T01:12:49.305Z,8.28
2018-11-02T01:15:17.635Z,8.33
2018-11-02T01:17:45.995Z,8.31
2018-11-02T01:20:14.395Z,8.30
2018-11-02T01:22:42.781Z,8.31
2018-11-02T01:25:11.026Z,8.35
2018-11-02T01:27:39.351Z,8.34
2018-11-02T01:30:07.663Z,8.31
2018-11-02T01:32:35.975Z,8.27
2018-11-02T01:35:04.267Z,8.18
2018-11-02T01:37:32.597Z,8.22
2018-11-02T01:40:00.882Z,8.22
2018-11-02T01:42:29.207Z,8.15
2018-11-02T01:44:57.687Z,8.09
2018-11-02T01:47:26.018Z,8.13
2018-11-02T01:49:54.307Z,8.05
2018-11-02T01:52:22.614Z,8.02
2018-11-02T01:54:50.903Z,8.00
2018-11-02T01:57:19.231Z,7.95
2018-11-02T01:59:47.511Z,8.00
2018-11-02T02:02:15.819Z,8.15
2018-11-02T02:04:44.132Z,8.16
2018-11-02T02:07:12.441Z,8.09
2018-11-02T02:09:40.719Z,8.11
2018-11-02T02:12:09.035Z,8.09
2018-11-02T02:14:37.335Z,8.14
2018-11-02T02:17:05.988Z,8.05
2018-11-02T02:19:34.284Z,8.12
2018-11-02T02:22:03.044Z,8.10
2018-11-02T02:24:31.344Z,8.06
2018-11-02T02:26:59.656Z,8.01
2018-11-02T02:29:27.988Z,8.04
2018-11-02T02:31:56.301Z,8.06
2018-11-02T02:34:24.597Z,8.09
2018-11-02T02:36:52.885Z,8.09
2018-11-02T02:39:21.196Z,8.08
2018-11-02T02:41:49.491Z,8.08
2018-11-02T02:44:17.787Z,8.08
2018-11-02T02:46:46.074Z,8.03
2018-11-02T02:49:14.395Z,7.97
2018-11-02T02:51:42.676Z,8.10
2018-11-02T02:54:10.983Z,8.03
2018-11-02T02:56:39.268Z,8.14
2018-11-02T02:59:07.559Z,7.99
2018-11-02T03:01:35.840Z,7.99
2018-11-02T03:04:04.414Z,7.94
2018-11-02T03:06:32.704Z,8.03
2018-11-02T03:09:01.131Z,8.03
2018-11-02T03:11:29.427Z,8.04
2018-11-02T03:13:57.763Z,8.03
2018-11-02T03:16:26.037Z,8.02
2018-11-02T03:18:54.369Z,8.02
2018-11-02T03:21:22.675Z,8.05
2018-11-02T03:23:50.983Z,8.09
2018-11-02T03:26:20.206Z,8.10
2018-11-02T03:28:48.543Z,7.97
2018-11-02T03:31:16.856Z,8.00
2018-11-02T03:33:45.944Z,8.00
2018-11-02T03:36:14.241Z,7.99
2018-11-02T03:38:42.548Z,7.94
2018-11-02T03:41:10.866Z,7.93
2018-11-02T03:43:39.159Z,7.93
2018-11-02T03:46:07.459Z,7.99
2018-11-02T03:48:35.803Z,7.96
2018-11-02T03:51:04.112Z,8.00
2018-11-02T03:53:32.450Z,7.93
2018-11-02T03:56:00.760Z,7.94
2018-11-02T03:58:29.066Z,7.93
2018-11-02T04:00:57.359Z,7.94
2018-11-02T04:03:25.676Z,7.96
2018-11-02T04:05:53.966Z,7.91
2018-11-02T04:08:22.293Z,7.90
2018-11-02T04:10:50.598Z,7.87
2018-11-02T04:13:18.891Z,7.83
2018-11-02T04:15:47.358Z,7.85
2018-11-02T04:18:15.668Z,7.81
2018-11-02T04:20:43.951Z,7.78
2018-11-02T04:23:12.267Z,7.82
2018-11-02T04:25:40.607Z,7.75
2018-11-02T04:28:08.975Z,7.69
2018-11-02T04:30:37.220Z,7.73
2018-11-02T04:33:06.055Z,7.78
2018-11-02T04:35:34.331Z,7.76
2018-11-02T04:38:02.640Z,7.69
2018-11-02T04:40:30.919Z,7.73
2018-11-02T04:42:59.212Z,7.64
2018-11-02T04:45:32.607Z,7.64
2018-11-02T04:48:01.572Z,7.64
2018-11-02T04:50:29.875Z,7.62
2018-11-02T04:52:58.175Z,7.64
2018-11-02T04:55:27.444Z,7.69
2018-11-02T04:57:55.737Z,7.68
2018-11-02T05:00:24.056Z,7.71
2018-11-02T05:02:52.344Z,7.73
2018-11-02T05:05:20.658Z,7.71
2018-11-02T05:07:49.214Z,7.88
2018-11-02T05:10:17.532Z,7.79
2018-11-02T05:12:46.011Z,7.75
2018-11-02T05:15:14.328Z,7.75
2018-11-02T05:17:43.548Z,7.84
2018-11-02T05:20:11.930Z,7.87
2018-11-02T05:22:40.208Z,7.79
2018-11-02T05:25:09.524Z,7.79
2018-11-02T05:27:38.491Z,7.76
2018-11-02T05:30:07.910Z,7.79
2018-11-02T05:32:36.241Z,7.73
2018-11-02T05:35:04.614Z,7.70
2018-11-02T05:37:33.132Z,7.68
2018-11-02T05:40:01.442Z,7.73
2018-11-02T05:42:29.736Z,7.76
2018-11-02T05:44:58.057Z,7.72
2018-11-02T05:47:26.451Z,7.69
2018-11-02T05:49:54.655Z,7.58
2018-11-02T05:52:22.953Z,7.43
2018-11-02T05:54:51.324Z,7.39
2018-11-02T05:57:19.603Z,7.19
2018-11-02T05:59:47.927Z,7.17
2018-11-02T06:02:16.231Z,7.10
2018-11-02T06:04:44.544Z,7.06
2018-11-02T06:07:12.851Z,7.00
2018-11-02T06:09:41.276Z,7.08
2018-11-02T06:12:09.559Z,7.24
2018-11-02T06:14:37.866Z,7.19
2018-11-02T06:17:06.461Z,7.21
2018-11-02T06:19:34.771Z,7.28
2018-11-02T06:22:03.070Z,7.32
2018-11-02T06:24:31.387Z,7.36
2018-11-02T06:27:00.009Z,7.39
2018-11-02T06:29:28.320Z,7.43
2018-11-02T06:31:56.616Z,7.46
2018-11-02T06:34:24.927Z,7.55
2018-11-02T06:36:53.232Z,7.54
2018-11-02T06:39:21.535Z,7.61
2018-11-02T06:41:49.815Z,7.64
2018-11-02T06:44:18.124Z,7.66
2018-11-02T06:46:46.420Z,7.85
2018-11-02T06:49:14.804Z,7.93
2018-11-02T06:51:43.103Z,8.03
2018-11-02T06:54:11.699Z,8.40
2018-11-02T06:56:40.755Z,8.31
2018-11-02T06:59:09.164Z,8.13
2018-11-02T07:01:37.409Z,8.02
2018-11-02T07:04:05.725Z,8.08
2018-11-02T07:06:34.004Z,8.39
2018-11-02T07:09:02.303Z,8.38
2018-11-02T07:11:30.583Z,8.81
2018-11-02T07:13:58.879Z,8.71
2018-11-02T07:16:27.171Z,8.84
2018-11-02T07:18:55.457Z,8.99
2018-11-02T07:21:23.745Z,8.84
2018-11-02T07:23:52.047Z,8.67
2018-11-02T07:26:20.352Z,8.72
2018-11-02T07:28:48.731Z,8.78
2018-11-02T07:31:17.056Z,9.25
2018-11-02T07:33:45.337Z,9.64
2018-11-02T07:36:13.640Z,9.86
2018-11-02T07:38:41.914Z,10.07
2018-11-02T07:41:10.232Z,9.89
2018-11-02T07:43:38.520Z,9.27
2018-11-02T07:46:06.872Z,9.12
2018-11-02T07:48:35.174Z,9.09
2018-11-02T07:51:03.471Z,9.18
2018-11-02T07:53:31.757Z,9.04
2018-11-02T07:56:00.072Z,9.10
2018-11-02T07:58:28.363Z,9.31
2018-11-02T08:00:56.663Z,9.70
2018-11-02T08:03:24.967Z,9.53
2018-11-02T08:05:53.958Z,9.40
2018-11-02T08:08:22.616Z,9.13
2018-11-02T08:10:50.920Z,9.07
2018-11-02T08:13:19.935Z,8.76
2018-11-02T08:15:48.256Z,8.64
2018-11-02T08:18:16.535Z,8.56
2018-11-02T08:20:44.799Z,8.54
2018-11-02T08:23:13.099Z,8.33
2018-11-02T08:25:41.396Z,8.28
2018-11-02T08:28:09.720Z,8.36
2018-11-02T08:30:37.988Z,8.50
2018-11-02T08:33:06.454Z,8.80
2018-11-02T08:35:34.731Z,8.86
2018-11-02T08:38:03.031Z,8.88
2018-11-02T08:40:31.299Z,8.94
2018-11-02T08:42:59.596Z,9.17
2018-11-02T08:45:27.863Z,9.14
2018-11-02T08:47:56.160Z,9.20
2018-11-02T08:50:24.427Z,9.18
2018-11-02T08:52:52.704Z,9.28
2018-11-02T08:55:21.525Z,9.55
2018-11-02T08:57:49.915Z,9.77
2018-11-02T09:00:18.220Z,10.16
2018-11-02T09:02:46.426Z,9.75
2018-11-02T09:05:14.846Z,9.72
2018-11-02T09:07:43.070Z,9.93
2018-11-02T09:10:12.243Z,10.01
2018-11-02T09:12:40.603Z,9.85
2018-11-02T09:15:08.921Z,10.14
2018-11-02T09:17:37.199Z,9.46
2018-11-02T09:20:05.727Z,9.60
2018-11-02T09:22:34.015Z,10.15
2018-11-02T09:25:02.508Z,9.75
2018-11-02T09:27:30.856Z,9.40
2018-11-02T09:29:59.135Z,9.65
2018-11-02T09:32:27.438Z,9.91
2018-11-02T09:34:55.723Z,9.72
2018-11-02T09:37:24.015Z,10.05
2018-11-02T09:39:52.803Z,10.01
2018-11-02T09:42:21.103Z,9.70
2018-11-02T09:44:49.831Z,10.20
2018-11-02T09:47:18.158Z,10.46
2018-11-02T09:49:46.481Z,10.40
2018-11-02T09:52:15.246Z,10.92
2018-11-02T09:54:43.558Z,10.68
2018-11-02T09:57:11.851Z,10.15
2018-11-02T09:59:40.364Z,10.35
2018-11-02T10:02:08.748Z,9.99
2018-11-02T10:04:36.975Z,10.14
2018-11-02T10:07:05.335Z,9.86
2018-11-02T10:09:33.664Z,10.18
2018-11-02T10:12:01.971Z,10.04
2018-11-02T10:14:30.290Z,10.04
2018-11-02T10:16:58.603Z,9.94
2018-11-02T10:19:26.927Z,10.51
2018-11-02T10:21:55.267Z,10.77
2018-11-02T10:24:23.580Z,10.89
2018-11-02T10:26:52.310Z,10.53
2018-11-02T10:29:20.627Z,11.20
2018-11-02T10:31:48.982Z,13.45
2018-11-02T10:34:17.327Z,13.86
2018-11-02T10:36:46.056Z,14.54
2018-11-02T10:39:14.887Z,14.25
2018-11-02T10:41:51.976Z,13.57
2018-11-02T10:44:24.501Z,12.86
2018-11-02T10:46:52.831Z,12.10
2018-11-02T10:49:21.793Z,11.29
2018-11-02T10:51:50.460Z,11.55
2018-11-02T10:54:18.809Z,12.19
2018-11-02T10:56:47.297Z,11.44
2018-11-02T10:59:15.504Z,12.35
2018-11-02T11:01:49.067Z,13.33
2018-11-02T11:04:17.427Z,13.26
2018-11-02T11:06:46.148Z,13.74
2018-11-02T11:09:14.523Z,14.08
2018-11-02T11:11:43.099Z,14.35
2018-11-02T11:14:11.515Z,14.57
2018-11-02T11:16:39.883Z,15.18
2018-11-02T11:19:09.379Z,16.08
2018-11-02T11:21:41.539Z,15.15
2018-11-02T11:24:09.929Z,15.75
2018-11-02T11:26:38.835Z,14.64
2018-11-02T11:29:07.331Z,13.49
2018-11-02T11:31:36.115Z,13.03
2018-11-02T11:34:04.981Z,13.18
2018-11-02T11:36:33.351Z,12.93
2018-11-02T11:39:01.671Z,12.39
2018-11-02T11:41:30.035Z,12.30
2018-11-02T11:43:58.406Z,12.04
2018-11-02T11:46:26.779Z,11.43
2018-11-02T11:48:55.183Z,11.57
2018-11-02T11:51:23.460Z,11.71
2018-11-02T11:53:51.816Z,11.84
2018-11-02T11:56:20.183Z,11.74
2018-11-02T11:58:48.536Z,11.44
2018-11-02T12:01:16.902Z,11.16
2018-11-02T12:03:45.267Z,10.85
2018-11-02T12:06:13.675Z,10.85
2018-11-02T12:08:42.035Z,10.62
2018-11-02T12:11:10.386Z,10.46
2018-11-02T12:13:38.815Z,10.11
2018-11-02T12:16:07.294Z,9.94
2018-11-02T12:18:35.537Z,10.05
2018-11-02T12:21:03.867Z,9.86
2018-11-02T12:23:32.426Z,9.70
2018-11-02T12:26:00.748Z,9.45
2018-11-02T12:28:29.146Z,9.30
2018-11-02T12:30:57.488Z,9.24
2018-11-02T12:33:25.851Z,9.09
2018-11-02T12:35:54.548Z,9.17
2018-11-02T12:38:22.887Z,9.31
2018-11-02T12:40:51.196Z,9.50
2018-11-02T12:43:19.630Z,9.69
2018-11-02T12:45:47.907Z,9.58
2018-11-02T12:48:16.320Z,9.54
2018-11-02T12:50:44.644Z,9.31
2018-11-02T12:53:13.025Z,9.17
2018-11-02T12:55:41.385Z,8.96
2018-11-02T12:58:09.759Z,8.76
2018-11-02T13:00:38.812Z,8.55
2018-11-02T13:03:07.159Z,8.56
2018-11-02T13:05:35.495Z,8.59
2018-11-02T13:08:03.832Z,8.58
2018-11-02T13:10:32.155Z,8.60
2018-11-02T13:13:00.499Z,8.53
2018-11-02T13:15:28.842Z,8.59
2018-11-02T13:17:57.237Z,8.59
2018-11-02T13:20:25.523Z,8.37
2018-11-02T13:22:53.875Z,8.52
2018-11-02T13:25:22.597Z,8.48
2018-11-02T13:27:51.589Z,8.34
2018-11-02T13:30:20.037Z,8.45
2018-11-02T13:32:48.291Z,8.30
2018-11-02T13:35:17.846Z,8.23
2018-11-02T13:37:46.561Z,8.28
2018-11-02T13:40:16.000Z,8.26
2018-11-02T13:42:44.448Z,8.23
2018-11-02T13:45:13.961Z,8.15
2018-11-02T13:47:42.883Z,8.25
2018-11-02T13:50:11.622Z,8.15
2018-11-02T13:52:40.255Z,8.12
2018-11-02T13:55:09.340Z,8.15
2018-11-02T13:57:37.963Z,8.19
2018-11-02T14:00:08.406Z,8.13
2018-11-02T14:02:36.761Z,8.22
2018-11-02T14:05:06.344Z,8.27
2018-11-02T14:07:34.707Z,8.48
2018-11-02T14:10:03.051Z,8.34
2018-11-02T14:12:31.404Z,8.26
2018-11-02T14:14:59.751Z,8.12
2018-11-02T14:17:28.124Z,8.09
2018-11-02T14:19:56.461Z,8.20
2018-11-02T14:22:24.779Z,8.11
2018-11-02T14:24:53.140Z,8.15
2018-11-02T14:27:21.471Z,8.04
2018-11-02T14:29:49.824Z,8.04
2018-11-02T14:32:18.155Z,8.11
2018-11-02T14:34:46.524Z,8.09
2018-11-02T14:37:14.883Z,8.27
2018-11-02T14:39:43.215Z,8.44
2018-11-02T14:42:11.654Z,8.32
2018-11-02T14:44:40.035Z,8.38
2018-11-02T14:47:08.415Z,8.23
2018-11-02T14:49:36.778Z,8.19
2018-11-02T14:52:05.326Z,8.15
2018-11-02T14:54:33.693Z,7.80
2018-11-02T14:57:02.391Z,7.88
2018-11-02T14:59:30.786Z,7.80
2018-11-02T15:01:59.126Z,7.91
2018-11-02T15:04:27.570Z,7.83
2018-11-02T15:06:55.907Z,7.87
2018-11-02T15:09:24.484Z,7.78
2018-11-02T15:11:52.815Z,7.91
2018-11-02T15:14:21.167Z,7.81
2018-11-02T15:16:49.496Z,7.79
2018-11-02T15:19:17.860Z,7.85
2018-11-02T15:21:46.192Z,7.79
2018-11-02T15:24:14.543Z,7.69
2018-11-02T15:26:42.885Z,7.63
2018-11-02T15:29:11.259Z,7.77
2018-11-02T15:31:39.579Z,7.66
2018-11-02T15:34:08.329Z,7.64
2018-11-02T15:36:36.781Z,7.50
2018-11-02T15:39:08.575Z,7.47
2018-11-02T15:41:36.971Z,7.43
2018-11-02T15:44:05.600Z,7.40
2018-11-02T15:46:33.903Z,7.37
2018-11-02T15:49:02.259Z,7.41
2018-11-02T15:51:30.583Z,7.36
2018-11-02T15:53:58.984Z,7.43
2018-11-02T15:56:27.339Z,7.39
2018-11-02T15:58:55.802Z,7.26
2018-11-02T16:01:24.271Z,7.27
2018-11-02T16:03:52.623Z,7.21
2018-11-02T16:06:20.967Z,7.21
2018-11-02T16:08:49.327Z,7.42
2018-11-02T16:11:17.685Z,7.28
2018-11-02T16:13:46.039Z,7.31
2018-11-02T16:16:14.551Z,7.20
2018-11-02T16:18:42.917Z,7.30
2018-11-02T16:21:11.252Z,7.21
2018-11-02T16:23:40.019Z,7.21
2018-11-02T16:26:08.690Z,7.28
2018-11-02T16:28:37.462Z,7.23
2018-11-02T16:31:05.815Z,7.24
2018-11-02T16:33:34.202Z,7.23
2018-11-02T16:36:02.560Z,7.51
2018-11-02T16:38:31.359Z,7.39
2018-11-02T16:40:59.721Z,7.27
2018-11-02T16:43:28.124Z,7.19
2018-11-02T16:45:56.400Z,7.09
2018-11-02T16:48:24.741Z,7.05
2018-11-02T16:50:53.096Z,7.16
2018-11-02T16:53:21.447Z,7.13
2018-11-02T16:55:49.811Z,7.00
2018-11-02T16:58:18.215Z,7.05
2018-11-02T17:00:46.580Z,7.01
2018-11-02T17:03:14.899Z,7.07
2018-11-02T17:05:43.336Z,7.07
2018-11-02T17:08:11.651Z,7.18
2018-11-02T17:10:40.025Z,7.14
2018-11-02T17:13:08.384Z,7.20
2018-11-02T17:15:36.751Z,7.16
2018-11-02T17:18:05.787Z,7.11
2018-11-02T17:20:34.099Z,7.31
2018-11-02T17:23:02.464Z,7.18
2018-11-02T17:25:30.842Z,6.95
2018-11-02T17:27:59.199Z,6.89
2018-11-02T17:30:27.679Z,6.93
2018-11-02T17:32:56.001Z,6.91
2018-11-02T17:35:24.371Z,6.85
2018-11-02T17:37:52.715Z,6.92
2018-11-02T17:40:21.304Z,6.82
2018-11-02T17:42:49.652Z,6.82
2018-11-02T17:45:18.041Z,6.61
2018-11-02T17:47:46.489Z,6.79
2018-11-02T17:50:15.478Z,6.58
2018-11-02T17:52:44.004Z,6.63
2018-11-02T17:55:12.360Z,6.73
2018-11-02T17:57:40.781Z,6.55
2018-11-02T18:00:10.607Z,6.67
2018-11-02T18:02:39.159Z,6.54
2018-11-02T18:05:08.143Z,6.56
2018-11-02T18:07:36.796Z,6.68
2018-11-02T18:10:07.089Z,6.60
2018-11-02T18:12:36.034Z,6.62
2018-11-02T18:15:04.676Z,6.55
2018-11-02T18:17:33.201Z,6.47
2018-11-02T18:20:01.995Z,6.48
2018-11-02T18:22:30.913Z,6.42
2018-11-02T18:24:59.320Z,6.35
2018-11-02T18:27:27.903Z,6.42
2018-11-02T18:29:56.460Z,6.49
2018-11-02T18:32:24.985Z,6.42
2018-11-02T18:34:53.432Z,6.39
2018-11-02T18:37:23.271Z,6.34
2018-11-02T18:39:51.760Z,6.33
2018-11-02T18:42:20.235Z,6.33
2018-11-02T18:44:48.959Z,6.28
2018-11-02T18:47:17.356Z,6.31
2018-11-02T18:49:45.840Z,6.28
2018-11-02T18:52:14.332Z,6.28
2018-11-02T18:54:42.683Z,6.22
2018-11-02T18:57:11.583Z,6.22
2018-11-02T18:59:39.947Z,6.21
2018-11-02T19:02:08.327Z,6.27
2018-11-02T19:04:36.700Z,6.19
2018-11-02T19:07:05.239Z,6.16
2018-11-02T19:09:33.583Z,6.23
2018-11-02T19:12:02.143Z,6.21
2018-11-02T19:14:30.540Z,6.24
2018-11-02T19:16:58.903Z,6.23
2018-11-02T19:19:27.294Z,6.23
2018-11-02T19:21:55.682Z,6.17
2018-11-02T19:24:24.035Z,6.21
2018-11-02T19:26:52.751Z,6.20
2018-11-02T19:29:21.023Z,6.16
2018-11-02T19:31:49.400Z,6.16
2018-11-02T19:34:17.832Z,6.19
2018-11-02T19:36:46.074Z,6.22
2018-11-02T19:39:14.412Z,6.17
2018-11-02T19:41:42.776Z,6.14
2018-11-02T19:44:11.175Z,6.17
2018-11-02T19:46:39.538Z,6.14
2018-11-02T19:49:07.993Z,6.07
2018-11-02T19:51:36.307Z,6.01
2018-11-02T19:54:04.731Z,6.06
2018-11-02T19:56:33.123Z,6.06
2018-11-02T19:59:01.486Z,6.00
2018-11-02T20:01:30.024Z,5.97
2018-11-02T20:03:58.396Z,5.96
2018-11-02T20:06:26.787Z,6.05
2018-11-02T20:08:55.153Z,5.97
2018-11-02T20:11:23.516Z,5.93
2018-11-02T20:13:51.905Z,5.97
2018-11-02T20:16:20.285Z,5.99
2018-11-02T20:18:48.662Z,5.98
2018-11-02T20:21:17.566Z,5.96
2018-11-02T20:23:46.319Z,5.98
2018-11-02T20:26:14.686Z,6.02
2018-11-02T20:28:43.024Z,6.05
2018-11-02T20:31:11.401Z,6.07
2018-11-02T20:33:40.109Z,6.06
2018-11-02T20:36:08.468Z,5.99
2018-11-02T20:38:36.865Z,5.92
2018-11-02T20:41:05.287Z,5.91
2018-11-02T20:43:33.651Z,5.86
2018-11-02T20:46:02.047Z,5.84
2018-11-02T20:48:30.573Z,5.89
2018-11-02T20:50:58.893Z,5.89
2018-11-02T20:53:27.514Z,5.94
2018-11-02T20:55:55.856Z,5.89
2018-11-02T20:58:24.344Z,5.92
2018-11-02T21:00:52.679Z,5.88
2018-11-02T21:03:21.071Z,5.86
2018-11-02T21:05:49.482Z,5.84
2018-11-02T21:08:17.870Z,5.83
2018-11-02T21:10:46.124Z,5.89
2018-11-02T21:13:14.959Z,5.89
2018-11-02T21:15:43.291Z,5.83
2018-11-02T21:18:11.677Z,5.86
2018-11-02T21:20:40.534Z,5.84
2018-11-02T21:23:08.831Z,5.70
2018-11-02T21:25:37.160Z,5.67
2018-11-02T21:28:06.671Z,5.66
2018-11-02T21:30:35.055Z,5.70
2018-11-02T21:33:03.473Z,5.62
2018-11-02T21:35:31.849Z,5.68
2018-11-02T21:38:00.347Z,5.70
2018-11-02T21:40:28.721Z,5.59
2018-11-02T21:42:57.089Z,5.54
2018-11-02T21:46:27.996Z,5.57
2018-11-02T21:48:56.403Z,5.45
2018-11-02T21:51:24.760Z,5.46
2018-11-02T21:53:53.153Z,5.45
2018-11-02T21:56:21.526Z,5.37
2018-11-02T21:58:49.901Z,5.29
2018-11-02T22:01:18.255Z,5.12
2018-11-02T22:03:46.621Z,5.13
2018-11-02T22:06:14.970Z,4.99
2018-11-02T22:08:43.343Z,4.82
2018-11-02T22:11:11.764Z,4.64
2018-11-02T22:13:57.092Z,4.57
2018-11-02T22:16:25.447Z,4.39
2018-11-02T22:18:53.840Z,4.36
2018-11-02T22:21:22.180Z,4.23
2018-11-02T22:23:50.557Z,4.15
2018-11-02T22:26:18.890Z,4.07
2018-11-02T22:28:47.625Z,3.97
2018-11-02T22:31:15.969Z,3.84
2018-11-02T22:33:44.284Z,3.66
2018-11-02T22:36:12.628Z,3.43
2018-11-02T22:40:05.362Z,3.28
2018-11-02T22:42:33.767Z,3.03
2018-11-02T22:45:02.107Z,2.86
2018-11-02T22:47:30.454Z,2.80
2018-11-02T22:49:58.779Z,2.62
2018-11-02T22:52:27.127Z,2.53
2018-11-02T22:54:55.476Z,2.47
2018-11-02T22:57:23.851Z,2.41
2018-11-02T22:59:52.192Z,2.45
2018-11-02T23:02:20.551Z,2.37
2018-11-02T23:04:48.939Z,2.32
2018-11-02T23:07:17.324Z,2.37
2018-11-02T23:09:45.672Z,2.26
2018-11-02T23:12:14.008Z,2.15
2018-11-02T23:14:42.373Z,2.15
2018-11-02T23:17:10.792Z,2.06
2018-11-02T23:19:39.134Z,2.07
2018-11-02T23:22:07.754Z,2.08
2018-11-02T23:24:36.119Z,1.97
2018-11-02T23:27:04.511Z,1.98
2018-11-02T23:29:33.212Z,1.91
2018-11-02T23:32:01.540Z,1.72
2018-11-02T23:34:29.903Z,1.64
2018-11-02T23:36:58.231Z,1.49
2018-11-02T23:39:26.579Z,1.43
2018-11-02T23:41:54.932Z,1.44
2018-11-02T23:44:23.260Z,1.32
2018-11-02T23:46:51.587Z,1.31
2018-11-02T23:49:19.970Z,1.23
2018-11-02T23:51:48.527Z,1.16
2018-11-02T23:54:16.879Z,1.17
2018-11-02T23:56:45.244Z,1.19
2018-11-02T23:59:13.603Z,1.12
